Time;durP1;ratioP1;P1;durP2;ratioP2;P2;SDS_P1;SDS_P2;PMS_P1;PMS_P2;Temp;Humidity;BMP_temperature;BMP_pressure;BME280_temperature;BME280_humidity;BME280_pressure;Samples;Min_cycle;Max_cycle;Signal;HPM_P1;HPM_P2
2022/05/21 00:00:59;;;;;;;;;;;;;;;22.75;63.47;97369.12;611809;232;64592;-72
2022/05/21 00:03:26;;;;;;;;;;;;;;;22.76;64.13;97374.22;612049;230;62859;-72
2022/05/21 00:05:54;;;;;;;;;;;;;;;22.75;63.94;97366.44;611909;232;64073;-72
2022/05/21 00:08:21;;;;;;;;;;;;;;;22.74;64.56;97362.96;611831;232;64373;-72
2022/05/21 00:10:49;;;;;;;;;;;;;;;22.74;64.15;97368.32;611838;232;62979;-72
2022/05/21 00:13:17;;;;;;;;;;;;;;;22.75;64.51;97363.76;611814;232;64807;-72
2022/05/21 00:15:47;;;;;;;;;;;;;;;22.74;64.17;97354.92;611856;232;48215;-72
2022/05/21 00:18:14;;;;;;;;;;;;;;;22.74;63.92;97349.56;611907;232;65372;-72
2022/05/21 00:20:48;;;;;;;;;;;;;;;22.73;64.04;97347.97;611854;232;66809;-72
2022/05/21 00:23:17;;;;;;;;;;;;;;;22.74;64.24;97351.45;611863;232;64541;-72
2022/05/21 00:25:47;;;;;;;;;;;;;;;22.73;64.29;97342.61;611182;232;62832;-72
2022/05/21 00:28:15;;;;;;;;;;;;;;;22.74;65.34;97346.09;611847;232;66966;-73
2022/05/21 00:30:44;;;;;;;;;;;;;;;22.73;64.21;97350.66;611867;232;64760;-73
2022/05/21 00:33:11;;;;;;;;;;;;;;;22.72;64.22;97346.35;611901;232;65405;-73
2022/05/21 00:35:39;;;;;;;;;;;;;;;22.72;64.52;97343.67;611823;232;66730;-73
2022/05/21 00:38:07;;;;;;;;;;;;;;;22.73;65.00;97339.94;611827;232;64606;-73
2022/05/21 00:40:35;;;;;;;;;;;;;;;22.72;64.02;97343.67;611829;232;65353;-73
2022/05/21 00:43:03;;;;;;;;;;;;;;;22.71;64.15;97342.08;611818;232;66852;-73
2022/05/21 00:45:31;;;;;;;;;;;;;;;22.71;64.29;97331.36;611878;232;66697;-73
2022/05/21 00:47:59;;;;;;;;;;;;;;;22.71;64.72;97326.00;611823;232;65181;-73
2022/05/21 00:50:28;;;;;;;;;;;;;;;22.71;64.74;97312.61;611868;232;66734;-73
2022/05/21 00:52:57;;;;;;;;;;;;;;;22.70;64.83;97308.34;611859;232;63941;-73
2022/05/21 00:55:26;;;;;;;;;;;;;;;22.70;64.66;97308.34;611759;230;62998;-73
2022/05/21 01:00:44;;;;;;;;;;;;;;;22.70;64.84;97305.66;611295;232;66788;-72
2022/05/21 01:03:13;;;;;;;;;;;;;;;22.70;64.58;97302.98;611378;230;65147;-72
2022/05/21 01:05:40;;;;;;;;;;;;;;;22.69;64.59;97298.68;610657;232;64339;-72
2022/05/21 01:08:08;;;;;;;;;;;;;;;22.69;64.05;97298.68;610696;232;64240;-72
2022/05/21 01:10:37;;;;;;;;;;;;;;;22.69;64.41;97290.64;611512;232;63043;-72
2022/05/21 01:13:06;;;;;;;;;;;;;;;22.70;64.62;97300.30;611910;232;66616;-72
2022/05/21 01:15:35;;;;;;;;;;;;;;;22.69;63.90;97292.52;611863;232;64300;-72
2022/05/21 01:18:06;;;;;;;;;;;;;;;22.69;64.48;97296.00;611858;232;65334;-72
2022/05/21 01:20:36;;;;;;;;;;;;;;;22.70;64.99;97292.27;611799;232;63913;-72
2022/05/21 01:23:04;;;;;;;;;;;;;;;22.68;64.26;97294.41;611874;232;64052;-73
2022/05/21 01:25:38;;;;;;;;;;;;;;;22.68;64.55;97289.05;611898;232;62944;-73
2022/05/21 01:28:11;;;;;;;;;;;;;;;22.68;64.60;97289.05;611917;232;66801;-73
2022/05/21 01:30:40;;;;;;;;;;;;;;;22.69;64.81;97292.52;611548;232;64408;-73
2022/05/21 01:33:09;;;;;;;;;;;;;;;22.68;64.76;97289.05;611847;232;65394;-73
2022/05/21 01:35:37;;;;;;;;;;;;;;;22.67;65.18;97287.46;611830;232;66600;-73
2022/05/21 01:38:05;;;;;;;;;;;;;;;22.68;64.23;97282.90;611857;232;66521;-73
2022/05/21 01:40:32;;;;;;;;;;;;;;;22.68;64.73;97280.22;611877;232;62991;-73
2022/05/21 01:45:48;;;;;;;;;;;;;;;22.67;64.70;97271.39;611833;232;64270;-72
2022/05/21 01:48:19;;;;;;;;;;;;;;;22.67;64.34;97278.59;611858;232;64952;-72
2022/05/21 01:50:44;;;;;;;;;;;;;;;22.66;64.71;97277.80;611768;230;64486;-72
2022/05/21 01:53:12;;;;;;;;;;;;;;;22.65;64.13;97272.73;611849;232;64258;-72
2022/05/21 01:55:39;;;;;;;;;;;;;;;22.66;64.79;97268.97;611868;232;62977;-72
2022/05/21 01:58:07;;;;;;;;;;;;;;;22.66;63.77;97266.29;611852;232;64298;-73
2022/05/21 02:00:35;;;;;;;;;;;;;;;22.65;64.75;97265.49;611745;232;66504;-72
2022/05/21 02:03:03;;;;;;;;;;;;;;;22.65;64.58;97262.81;612103;230;65508;-72
2022/05/21 02:05:30;;;;;;;;;;;;;;;22.65;65.32;97257.45;611731;232;66641;-72
2022/05/21 02:07:58;;;;;;;;;;;;;;;22.65;64.00;97257.45;611875;232;63829;-72
2022/05/21 02:10:26;;;;;;;;;;;;;;;22.64;63.93;97253.16;611840;232;63140;-72
2022/05/21 02:12:53;;;;;;;;;;;;;;;22.64;64.51;97245.12;611847;232;64307;-72
2022/05/21 02:15:21;;;;;;;;;;;;;;;22.64;64.58;97245.12;611847;232;64642;-72
2022/05/21 02:17:48;;;;;;;;;;;;;;;22.64;64.96;97247.80;611850;232;63223;-72
2022/05/21 02:20:16;;;;;;;;;;;;;;;22.64;64.34;97245.12;611870;232;66514;-72
2022/05/21 02:22:43;;;;;;;;;;;;;;;22.63;64.98;97243.53;611857;232;66390;-72
2022/05/21 02:25:14;;;;;;;;;;;;;;;22.64;64.55;97244.33;611847;232;62982;-72
2022/05/21 02:27:40;;;;;;;;;;;;;;;22.63;65.03;97246.20;611774;232;64403;-72
2022/05/21 02:30:08;;;;;;;;;;;;;;;22.64;65.43;97249.69;611866;232;66233;-72
2022/05/21 02:32:35;;;;;;;;;;;;;;;22.63;64.84;97242.73;611904;232;65387;-72
2022/05/21 02:35:03;;;;;;;;;;;;;;;22.62;65.24;97249.98;611815;232;66281;-73
2022/05/21 02:40:16;;;;;;;;;;;;;;;22.62;65.41;97263.38;611803;232;65565;-72
2022/05/21 02:42:43;;;;;;;;;;;;;;;22.62;65.04;97258.02;611853;232;66775;-72
2022/05/21 02:45:11;;;;;;;;;;;;;;;22.63;64.83;97264.16;611828;232;66323;-72
2022/05/21 02:47:39;;;;;;;;;;;;;;;22.61;65.01;97262.55;611855;232;62947;-72
2022/05/21 02:50:07;;;;;;;;;;;;;;;22.61;65.00;97262.55;611851;232;66622;-72
2022/05/21 02:52:35;;;;;;;;;;;;;;;22.62;65.46;97268.73;611832;232;66602;-72
2022/05/21 02:55:04;;;;;;;;;;;;;;;22.61;65.40;97256.39;611860;232;62957;-72
2022/05/21 02:57:31;;;;;;;;;;;;;;;22.58;63.60;97263.09;611901;232;64393;-71
2022/05/21 03:00:04;;;;;;;;;;;;;;;22.59;64.07;97256.69;611839;232;64235;-71
2022/05/21 03:02:31;;;;;;;;;;;;;;;22.60;64.84;97254.80;611701;230;65285;-71
2022/05/21 03:05:00;;;;;;;;;;;;;;;22.59;64.90;97248.65;611228;232;64141;-71
2022/05/21 03:07:27;;;;;;;;;;;;;;;22.60;64.67;97250.23;611876;232;64087;-71
2022/05/21 03:12:40;;;;;;;;;;;;;;;22.59;65.15;97248.65;611878;232;64323;-71
2022/05/21 03:15:08;;;;;;;;;;;;;;;22.59;65.44;97251.33;611920;232;66268;-71
2022/05/21 03:17:35;;;;;;;;;;;;;;;22.59;65.24;97248.65;611854;232;65599;-71
2022/05/21 03:20:04;;;;;;;;;;;;;;;22.58;65.43;97247.03;611874;232;66538;-71
2022/05/21 03:22:31;;;;;;;;;;;;;;;22.58;65.30;97244.34;611886;232;63814;-71
2022/05/21 03:24:59;;;;;;;;;;;;;;;22.59;64.62;97250.53;611854;232;65516;-71
2022/05/21 03:27:26;;;;;;;;;;;;;;;22.57;65.30;97242.76;611925;232;66567;-71
2022/05/21 03:29:54;;;;;;;;;;;;;;;22.56;64.48;97248.38;611856;232;66588;-71
2022/05/21 03:32:21;;;;;;;;;;;;;;;22.57;65.13;97250.00;611887;232;63075;-71
2022/05/21 03:34:49;;;;;;;;;;;;;;;22.57;64.71;97250.80;611860;232;64053;-71
2022/05/21 03:37:16;;;;;;;;;;;;;;;22.57;65.28;97258.03;611888;232;64274;-71
2022/05/21 03:39:43;;;;;;;;;;;;;;;22.57;65.01;97256.16;611912;229;62993;-71
2022/05/21 03:42:11;;;;;;;;;;;;;;;22.57;65.21;97252.67;611862;232;64315;-71
2022/05/21 03:44:38;;;;;;;;;;;;;;;22.57;64.79;97250.00;611905;232;64905;-71
2022/05/21 03:47:06;;;;;;;;;;;;;;;22.57;65.32;97240.08;611905;229;63092;-71
2022/05/21 03:49:33;;;;;;;;;;;;;;;22.56;65.27;97246.52;611882;232;66396;-71
2022/05/21 03:52:01;;;;;;;;;;;;;;;22.57;65.29;97250.00;611928;232;66070;-71
2022/05/21 03:54:28;;;;;;;;;;;;;;;22.55;65.18;97246.78;611865;232;65082;-71
2022/05/21 03:56:56;;;;;;;;;;;;;;;22.55;65.83;97250.26;611853;232;66536;-71
2022/05/21 03:59:23;;;;;;;;;;;;;;;22.55;64.95;97249.46;611909;232;66279;-72
2022/05/21 04:01:51;;;;;;;;;;;;;;;22.55;65.71;97246.78;611887;232;65559;-72
2022/05/21 04:04:18;;;;;;;;;;;;;;;22.55;64.84;97247.58;611835;232;66247;-72
2022/05/21 04:06:46;;;;;;;;;;;;;;;22.54;64.93;97254.02;611869;232;66113;-72
2022/05/21 04:09:13;;;;;;;;;;;;;;;22.55;65.17;97252.14;611868;232;65111;-72
2022/05/21 04:11:41;;;;;;;;;;;;;;;22.55;65.85;97252.14;611877;232;66488;-72
2022/05/21 04:14:08;;;;;;;;;;;;;;;22.54;64.91;97250.55;611884;232;66408;-72
2022/05/21 04:16:36;;;;;;;;;;;;;;;22.54;65.64;97254.02;611846;232;63072;-72
2022/05/21 04:19:04;;;;;;;;;;;;;;;22.53;65.36;97260.44;611893;232;66609;-72
2022/05/21 04:21:32;;;;;;;;;;;;;;;22.54;65.40;97254.02;611858;232;66157;-72
2022/05/21 04:23:59;;;;;;;;;;;;;;;22.54;64.16;97253.23;611874;232;63889;-72
2022/05/21 04:26:27;;;;;;;;;;;;;;;22.53;64.94;97249.72;611854;232;66728;-72
2022/05/21 04:28:54;;;;;;;;;;;;;;;22.53;65.24;97248.93;611896;232;66339;-72
2022/05/21 04:31:22;;;;;;;;;;;;;;;22.53;65.01;97251.61;611907;232;65085;-72
2022/05/21 04:33:49;;;;;;;;;;;;;;;22.52;65.12;97253.48;611849;232;66494;-72
2022/05/21 04:36:19;;;;;;;;;;;;;;;22.52;65.34;97258.05;611902;232;66111;-72
2022/05/21 04:38:48;;;;;;;;;;;;;;;22.52;64.80;97261.52;611877;232;65474;-72
2022/05/21 04:41:16;;;;;;;;;;;;;;;22.52;65.26;97258.05;611841;232;64313;-72
2022/05/21 04:43:43;;;;;;;;;;;;;;;22.52;65.72;97258.05;611917;232;64483;-72
2022/05/21 04:46:11;;;;;;;;;;;;;;;22.53;66.02;97256.97;611823;232;63082;-72
2022/05/21 04:48:41;;;;;;;;;;;;;;;22.52;65.59;97250.02;611858;232;64540;-72
2022/05/21 04:51:08;;;;;;;;;;;;;;;22.52;65.88;97247.34;611861;232;66511;-72
2022/05/21 04:53:36;;;;;;;;;;;;;;;22.51;65.81;97245.75;611850;232;65481;-72
2022/05/21 04:56:04;;;;;;;;;;;;;;;22.51;65.29;97240.39;611887;232;66518;-72
2022/05/21 04:58:31;;;;;;;;;;;;;;;22.51;65.69;97245.75;611879;232;66630;-72
2022/05/21 05:00:59;;;;;;;;;;;;;;;22.51;65.13;97245.75;611835;232;66238;-72
2022/05/21 05:03:26;;;;;;;;;;;;;;;22.50;65.48;97244.13;611670;229;66501;-72
2022/05/21 05:05:54;;;;;;;;;;;;;;;22.50;65.18;97239.56;611758;232;66617;-72
2022/05/21 05:08:22;;;;;;;;;;;;;;;22.50;65.75;97241.45;611840;232;65403;-72
2022/05/21 05:10:49;;;;;;;;;;;;;;;22.49;65.58;97237.98;611887;232;67091;-72
2022/05/21 05:13:17;;;;;;;;;;;;;;;22.49;65.89;97237.18;611819;232;66630;-72
2022/05/21 05:15:46;;;;;;;;;;;;;;;22.50;65.63;97233.41;611834;232;62899;-72
2022/05/21 05:18:15;;;;;;;;;;;;;;;22.49;66.13;97234.50;611853;232;66891;-72
2022/05/21 05:20:43;;;;;;;;;;;;;;;22.49;65.07;97231.83;611833;232;66717;-71
2022/05/21 05:23:10;;;;;;;;;;;;;;;22.48;65.20;97233.70;611874;232;65049;-71
2022/05/21 05:25:40;;;;;;;;;;;;;;;22.49;64.61;97237.18;611852;232;67159;-71
2022/05/21 05:28:14;;;;;;;;;;;;;;;22.48;64.46;97236.38;611810;232;66882;-72
2022/05/21 05:30:42;;;;;;;;;;;;;;;22.48;65.50;97238.23;611839;232;65132;-71
2022/05/21 05:33:09;;;;;;;;;;;;;;;22.48;65.40;97240.91;611823;232;66836;-71
2022/05/21 05:35:37;;;;;;;;;;;;;;;22.47;66.28;97229.41;611858;232;66684;-71
2022/05/21 05:38:09;;;;;;;;;;;;;;;22.48;66.44;97238.23;611857;232;65351;-72
2022/05/21 05:40:37;;;;;;;;;;;;;;;22.46;64.80;97232.38;611816;232;66754;-72
2022/05/21 05:43:05;;;;;;;;;;;;;;;22.47;65.80;97232.09;611843;232;66628;-72
2022/05/21 05:45:32;;;;;;;;;;;;;;;22.45;65.88;97223.52;611833;232;65081;-72
2022/05/21 05:48:00;;;;;;;;;;;;;;;22.47;65.44;97223.26;611804;232;66698;-72
2022/05/21 05:50:27;;;;;;;;;;;;;;;22.47;65.99;97220.58;611914;232;66441;-72
2022/05/21 05:52:55;;;;;;;;;;;;;;;22.46;65.86;97217.11;611811;232;63003;-72
2022/05/21 05:55:23;;;;;;;;;;;;;;;22.46;66.02;97205.59;611800;232;67371;-72
2022/05/21 05:57:51;;;;;;;;;;;;;;;22.46;65.67;97202.92;611825;232;66962;-72
2022/05/21 06:00:19;;;;;;;;;;;;;;;22.46;66.55;97200.23;611816;232;62987;-72
2022/05/21 06:02:58;;;;;;;;;;;;;;;22.45;66.39;97196.73;612663;230;64413;-71
2022/05/21 06:05:31;;;;;;;;;;;;;;;22.45;65.91;97198.63;611803;232;65521;-72
2022/05/21 06:08:00;;;;;;;;;;;;;;;22.45;65.81;97193.27;611839;232;65109;-71
2022/05/21 06:10:32;;;;;;;;;;;;;;;22.44;66.30;97191.67;611533;232;64393;-71
2022/05/21 06:12:59;;;;;;;;;;;;;;;22.45;65.29;97190.59;611857;232;66648;-71
2022/05/21 06:15:27;;;;;;;;;;;;;;;22.47;66.38;97180.41;611821;232;65099;-71
2022/05/21 06:17:55;;;;;;;;;;;;;;;22.46;66.56;97182.30;611837;229;66708;-72
2022/05/21 06:20:24;;;;;;;;;;;;;;;22.47;65.77;97172.38;611818;232;66802;-72
2022/05/21 06:22:53;;;;;;;;;;;;;;;22.48;65.72;97165.93;611821;232;65600;-71
2022/05/21 06:25:21;;;;;;;;;;;;;;;22.47;65.46;97159.78;611784;232;67308;-71
2022/05/21 06:27:50;;;;;;;;;;;;;;;22.49;65.91;97164.88;611820;232;66819;-72
2022/05/21 06:30:19;;;;;;;;;;;;;;;22.48;65.41;97161.40;611867;232;63873;-72
2022/05/21 06:32:47;;;;;;;;;;;;;;;22.49;65.75;97151.48;611826;232;64356;-72
2022/05/21 06:35:15;;;;;;;;;;;;;;;22.49;66.23;97152.28;611840;232;64636;-72
2022/05/21 06:37:43;;;;;;;;;;;;;;;22.49;66.33;97146.12;611867;232;65541;-72
2022/05/21 06:40:11;;;;;;;;;;;;;;;22.49;65.75;97138.09;611888;232;66754;-72
2022/05/21 06:42:39;;;;;;;;;;;;;;;22.48;64.72;97131.94;611861;232;66778;-72
2022/05/21 06:45:07;;;;;;;;;;;;;;;22.49;65.69;97130.85;611828;232;65602;-71
2022/05/21 06:47:35;;;;;;;;;;;;;;;22.48;65.31;97129.27;611844;232;66730;-71
2022/05/21 06:50:03;;;;;;;;;;;;;;;22.50;66.09;97126.29;611857;232;64583;-71
2022/05/21 06:52:31;;;;;;;;;;;;;;;22.50;66.19;97120.94;611875;232;63203;-71
2022/05/21 06:55:00;;;;;;;;;;;;;;;22.49;65.90;97117.46;611836;232;66699;-71
2022/05/21 06:57:28;;;;;;;;;;;;;;;22.49;66.35;97114.78;611857;232;67008;-71
2022/05/21 06:59:56;;;;;;;;;;;;;;;22.50;65.89;97118.25;611855;232;63952;-71
2022/05/21 07:02:25;;;;;;;;;;;;;;;22.51;66.87;97117.20;611782;232;67417;-71
2022/05/21 07:07:43;;;;;;;;;;;;;;;22.50;66.04;97110.22;611852;232;63040;-71
2022/05/21 07:10:09;;;;;;;;;;;;;;;22.51;66.96;97107.28;611756;232;66900;-71
2022/05/21 07:12:37;;;;;;;;;;;;;;;22.49;66.29;97103.27;611869;232;67014;-71
2022/05/21 07:15:07;;;;;;;;;;;;;;;22.51;66.76;97093.09;611833;232;65811;-71
2022/05/21 07:17:34;;;;;;;;;;;;;;;22.50;66.31;97089.59;611855;232;66825;-72
2022/05/21 07:20:02;;;;;;;;;;;;;;;22.50;66.54;97086.12;611836;232;66825;-72
2022/05/21 07:22:30;;;;;;;;;;;;;;;22.50;66.73;97092.27;611846;231;65103;-72
2022/05/21 07:24:59;;;;;;;;;;;;;;;22.50;66.73;97086.12;611898;232;64368;-72
2022/05/21 07:27:26;;;;;;;;;;;;;;;22.50;66.42;97084.23;611816;232;66673;-72
2022/05/21 07:29:54;;;;;;;;;;;;;;;22.50;66.80;97081.55;611883;232;64964;-73
2022/05/21 07:32:23;;;;;;;;;;;;;;;22.51;65.89;97090.41;611854;232;64300;-72
2022/05/21 07:34:52;;;;;;;;;;;;;;;22.51;66.55;97080.50;611847;232;66639;-72
2022/05/21 07:37:19;;;;;;;;;;;;;;;22.50;65.83;97083.44;611273;232;65164;-72
2022/05/21 07:39:47;;;;;;;;;;;;;;;22.50;66.22;97086.91;611839;232;67175;-72
2022/05/21 07:42:15;;;;;;;;;;;;;;;22.50;66.86;97088.80;611827;232;67569;-72
2022/05/21 07:44:42;;;;;;;;;;;;;;;22.50;66.16;97083.44;611869;232;63036;-72
2022/05/21 07:47:10;;;;;;;;;;;;;;;22.51;66.40;97085.06;611795;232;66752;-72
2022/05/21 07:49:37;;;;;;;;;;;;;;;22.49;65.35;97071.94;611823;232;66643;-72
2022/05/21 07:52:05;;;;;;;;;;;;;;;22.50;66.21;97075.41;611906;232;65085;-72
2022/05/21 07:54:33;;;;;;;;;;;;;;;22.50;65.25;97067.37;611883;232;66497;-72
2022/05/21 07:57:01;;;;;;;;;;;;;;;22.51;66.66;97063.63;611878;232;66328;-72
2022/05/21 07:59:30;;;;;;;;;;;;;;;22.51;66.79;97058.28;611782;232;65823;-72
2022/05/21 08:01:57;;;;;;;;;;;;;;;22.51;66.46;97052.92;611870;232;64534;-72
2022/05/21 08:04:25;;;;;;;;;;;;;;;22.51;66.58;97055.60;611863;229;64189;-72
2022/05/21 08:06:52;;;;;;;;;;;;;;;22.50;66.76;97049.42;611885;232;63891;-72
2022/05/21 08:09:21;;;;;;;;;;;;;;;22.50;67.06;97051.30;611874;232;66389;-72
2022/05/21 08:11:49;;;;;;;;;;;;;;;22.50;66.42;97048.63;611857;232;66558;-72
2022/05/21 08:14:18;;;;;;;;;;;;;;;22.49;67.04;97042.47;611936;232;65167;-72
2022/05/21 08:16:46;;;;;;;;;;;;;;;22.50;66.40;97037.91;611819;232;66528;-72
2022/05/21 08:19:14;;;;;;;;;;;;;;;22.50;66.48;97041.39;611890;232;64064;-72
2022/05/21 08:21:41;;;;;;;;;;;;;;;22.51;66.78;97036.85;611862;232;63076;-72
2022/05/21 08:26:57;;;;;;;;;;;;;;;22.50;66.83;97037.91;611908;232;67023;-72
2022/05/21 08:29:26;;;;;;;;;;;;;;;22.49;65.92;97028.29;611856;232;65424;-72
2022/05/21 08:31:54;;;;;;;;;;;;;;;22.50;67.05;97029.88;611843;232;66504;-72
2022/05/21 08:34:22;;;;;;;;;;;;;;;22.50;66.65;97027.20;611852;232;64379;-72
2022/05/21 08:36:49;;;;;;;;;;;;;;;22.50;66.59;97024.52;611848;232;65611;-72
2022/05/21 08:39:17;;;;;;;;;;;;;;;22.50;66.58;97024.52;611824;232;66770;-72
2022/05/21 08:41:56;;;;;;;;;;;;;;;22.49;66.35;97029.09;611828;232;63990;-72
2022/05/21 08:44:42;;;;;;;;;;;;;;;22.49;66.56;97023.73;611647;232;65102;-72
2022/05/21 08:47:20;;;;;;;;;;;;;;;22.49;67.07;97018.38;611842;232;64109;-73
2022/05/21 08:49:52;;;;;;;;;;;;;;;22.49;67.35;97009.55;607224;232;64474;-73
2022/05/21 08:52:21;;;;;;;;;;;;;;;22.49;67.04;97017.58;611730;232;63134;-73
2022/05/21 08:54:50;;;;;;;;;;;;;;;22.49;66.82;97013.02;611838;232;65093;-73
2022/05/21 08:57:25;;;;;;;;;;;;;;;22.49;66.82;97023.73;611825;232;66685;-73
2022/05/21 08:59:54;;;;;;;;;;;;;;;22.48;66.92;97026.67;611836;232;65461;-73
2022/05/21 09:02:23;;;;;;;;;;;;;;;22.49;66.94;97030.97;610079;232;66784;-73
2022/05/21 09:04:50;;;;;;;;;;;;;;;22.49;66.81;97030.97;611601;231;64445;-73
2022/05/21 09:07:20;;;;;;;;;;;;;;;22.49;67.43;97034.44;611859;232;63248;-73
2022/05/21 09:09:49;;;;;;;;;;;;;;;22.49;67.33;97033.65;611540;232;66860;-73
2022/05/21 09:12:18;;;;;;;;;;;;;;;22.49;66.55;97033.65;611876;229;66684;-73
2022/05/21 09:14:47;;;;;;;;;;;;;;;22.48;66.03;97034.70;611843;232;65362;-73
2022/05/21 09:17:16;;;;;;;;;;;;;;;22.49;66.09;97044.36;611798;232;64787;-73
2022/05/21 09:19:48;;;;;;;;;;;;;;;22.50;67.19;97043.27;611832;232;66729;-73
2022/05/21 09:22:17;;;;;;;;;;;;;;;22.48;67.03;97038.21;611839;232;63021;-73
2022/05/21 09:24:46;;;;;;;;;;;;;;;22.49;66.40;97033.65;611814;232;66871;-73
2022/05/21 09:27:25;;;;;;;;;;;;;;;22.49;66.55;97036.33;611896;232;64621;-71
2022/05/21 09:29:55;;;;;;;;;;;;;;;22.49;66.61;97033.65;611838;232;65371;-72
2022/05/21 09:32:24;;;;;;;;;;;;;;;22.49;66.35;97026.41;611825;232;64654;-72
2022/05/21 09:35:02;;;;;;;;;;;;;;;22.48;65.79;97027.50;611683;232;64228;-72
2022/05/21 09:37:31;;;;;;;;;;;;;;;22.48;67.09;97029.35;611732;232;64962;-72
2022/05/21 09:39:59;;;;;;;;;;;;;;;22.48;66.96;97030.17;611788;232;66553;-72
2022/05/21 09:45:25;;;;;;;;;;;;;;;22.48;66.91;97024.82;611817;232;66379;-73
2022/05/21 09:47:54;;;;;;;;;;;;;;;22.48;66.08;97029.35;611841;232;64655;-73
2022/05/21 09:50:23;;;;;;;;;;;;;;;22.47;66.06;97019.73;611810;232;66698;-73
2022/05/21 09:52:51;;;;;;;;;;;;;;;22.48;66.93;97016.79;611703;232;62610;-73
2022/05/21 09:55:20;;;;;;;;;;;;;;;22.48;66.24;97010.61;611805;232;66776;-73
2022/05/21 09:57:48;;;;;;;;;;;;;;;22.48;66.46;97015.96;611879;232;66691;-73
2022/05/21 10:00:24;;;;;;;;;;;;;;;22.47;66.75;97014.38;611854;229;62606;-73
2022/05/21 10:02:53;;;;;;;;;;;;;;;22.47;66.28;97020.52;611751;230;64216;-72
2022/05/21 10:05:22;;;;;;;;;;;;;;;22.48;66.99;97013.28;611588;232;64565;-72
2022/05/21 10:11:02;;;;;;;;;;;;;;;22.48;66.97;97010.61;611892;231;45346;-72
2022/05/21 10:13:34;;;;;;;;;;;;;;;22.48;66.77;96999.89;611824;232;66626;-72
2022/05/21 10:16:15;;;;;;;;;;;;;;;22.48;67.12;97005.25;611677;232;65364;-73
2022/05/21 10:18:53;;;;;;;;;;;;;;;22.47;66.84;97003.66;611688;232;66765;-72
2022/05/21 10:21:22;;;;;;;;;;;;;;;22.47;66.77;97011.70;611838;231;66843;-72
2022/05/21 10:23:52;;;;;;;;;;;;;;;22.46;66.11;97013.58;611757;230;63245;-72
2022/05/21 10:26:30;;;;;;;;;;;;;;;22.48;66.48;97007.93;611836;232;67323;-72
2022/05/21 10:29:15;;;;;;;;;;;;;;;22.47;66.52;96998.31;611836;232;64444;-73
2022/05/21 10:31:56;;;;;;;;;;;;;;;22.47;66.90;97009.02;611829;232;65444;-72
2022/05/21 10:34:31;;;;;;;;;;;;;;;22.47;67.18;97001.78;602783;232;66754;-72
2022/05/21 10:37:06;;;;;;;;;;;;;;;22.47;66.53;97001.78;611514;232;67723;-72
2022/05/21 10:39:35;;;;;;;;;;;;;;;22.47;66.52;97003.66;611829;232;65412;-72
2022/05/21 10:42:20;;;;;;;;;;;;;;;22.48;66.46;97010.61;611845;232;64535;-73
2022/05/21 10:45:05;;;;;;;;;;;;;;;22.47;66.08;96999.10;611822;232;64767;-73
2022/05/21 10:47:43;;;;;;;;;;;;;;;22.47;66.82;96996.42;611582;232;65325;-73
2022/05/21 10:50:29;;;;;;;;;;;;;;;22.47;66.10;96998.31;611801;232;64603;-73
2022/05/21 10:53:04;;;;;;;;;;;;;;;22.47;67.40;96987.59;611830;232;66392;-73
2022/05/21 10:55:41;;;;;;;;;;;;;;;22.46;67.59;96994.05;611860;232;65513;-73
2022/05/21 10:58:10;;;;;;;;;;;;;;;22.46;67.05;96988.69;611801;232;66986;-73
2022/05/21 11:00:59;;;;;;;;;;;;;;;22.46;67.40;96983.33;611807;231;46584;-73
2022/05/21 11:03:37;;;;;;;;;;;;;;;22.45;67.24;96982.51;611483;230;65325;-73
2022/05/21 11:06:22;;;;;;;;;;;;;;;22.46;67.32;96984.13;610638;232;66761;-73
2022/05/21 11:09:10;;;;;;;;;;;;;;;22.47;67.62;96968.85;611548;232;66700;-74
2022/05/21 11:11:47;;;;;;;;;;;;;;;22.46;67.30;96964.59;611720;232;65870;-72
2022/05/21 11:14:18;;;;;;;;;;;;;;;22.46;67.33;96983.33;611824;232;64596;-74
2022/05/21 11:17:00;;;;;;;;;;;;;;;22.45;67.45;96973.68;611870;232;66946;-74
2022/05/21 11:19:29;;;;;;;;;;;;;;;22.46;68.42;96969.95;611877;229;66018;-72
2022/05/21 11:22:02;;;;;;;;;;;;;;;22.45;66.60;96965.65;611788;230;66548;-72
2022/05/21 11:24:32;;;;;;;;;;;;;;;22.46;68.00;96960.03;611810;230;64326;-73
2022/05/21 11:27:02;;;;;;;;;;;;;;;22.45;67.33;96946.91;611655;232;63015;-72
2022/05/21 11:29:34;;;;;;;;;;;;;;;22.45;67.25;96936.19;611879;232;67134;-72
2022/05/21 11:37:42;;;;;;;;;;;;;;;22.45;68.35;96930.84;611865;232;66714;-73
2022/05/21 11:40:11;;;;;;;;;;;;;;;22.46;67.32;96932.45;611846;232;67307;-73
2022/05/21 11:42:41;;;;;;;;;;;;;;;22.45;67.76;96922.80;611067;232;65423;-73
2022/05/21 11:45:11;;;;;;;;;;;;;;;22.46;67.87;96911.83;611540;232;64412;-73
2022/05/21 11:47:46;;;;;;;;;;;;;;;22.46;67.82;96905.67;611902;232;64645;-73
2022/05/21 11:50:14;;;;;;;;;;;;;;;22.45;67.63;96899.50;611867;230;65111;-73
2022/05/21 11:52:43;;;;;;;;;;;;;;;22.46;67.64;96894.97;611815;232;65449;-73
2022/05/21 11:55:16;;;;;;;;;;;;;;;22.46;67.44;96878.90;611615;232;66684;-73
2022/05/21 11:57:57;;;;;;;;;;;;;;;22.45;67.83;96877.28;611873;232;65453;-73
2022/05/21 12:00:30;;;;;;;;;;;;;;;22.45;67.23;96874.61;611657;232;48451;-73
2022/05/21 12:02:59;;;;;;;;;;;;;;;22.45;67.84;96872.72;611895;230;66663;-73
2022/05/21 12:05:34;;;;;;;;;;;;;;;22.44;67.45;96865.78;611309;232;65402;-73
2022/05/21 12:08:15;;;;;;;;;;;;;;;22.46;68.41;96873.55;611236;232;64563;-73
2022/05/21 12:11:04;;;;;;;;;;;;;;;22.45;66.96;96872.72;611336;232;64085;-73
2022/05/21 12:13:33;;;;;;;;;;;;;;;22.46;67.66;96873.55;611271;232;65291;-73
2022/05/21 12:16:02;;;;;;;;;;;;;;;22.46;67.48;96877.02;610732;232;64294;-73
2022/05/21 12:18:34;;;;;;;;;;;;;;;22.46;67.81;96868.19;611261;232;66955;-73
2022/05/21 12:21:01;;;;;;;;;;;;;;;22.45;67.68;96861.22;611352;232;62951;-73
2022/05/21 12:23:35;;;;;;;;;;;;;;;22.46;67.14;96857.48;611643;232;64272;-73
2022/05/21 12:26:05;;;;;;;;;;;;;;;22.46;67.69;96855.59;611883;232;66544;-72
2022/05/21 12:28:34;;;;;;;;;;;;;;;22.46;67.90;96863.63;611875;232;63069;-72
2022/05/21 12:31:03;;;;;;;;;;;;;;;22.45;67.32;96845.16;611820;231;63987;-73
2022/05/21 12:33:49;;;;;;;;;;;;;;;22.45;67.68;96845.94;611856;232;66744;-73
2022/05/21 12:36:26;;;;;;;;;;;;;;;22.47;67.91;96840.31;598292;236;65486;-72
2022/05/21 12:38:54;;;;;;;;;;;;;;;22.47;67.52;96843.00;608388;232;64343;-73
2022/05/21 12:41:26;;;;;;;;;;;;;;;22.46;67.97;96841.41;611829;232;64590;-72
2022/05/21 12:43:54;;;;;;;;;;;;;;;22.46;67.82;96846.77;611827;232;63039;-73
2022/05/21 12:46:24;;;;;;;;;;;;;;;22.45;68.28;96851.30;611803;232;67037;-72
2022/05/21 12:48:52;;;;;;;;;;;;;;;22.45;68.18;96845.16;611845;229;66722;-72
2022/05/21 12:51:28;;;;;;;;;;;;;;;22.45;67.40;96832.55;611882;232;63238;-72
2022/05/21 12:53:56;;;;;;;;;;;;;;;22.46;67.46;96838.73;611825;232;66725;-72
2022/05/21 12:56:29;;;;;;;;;;;;;;;22.46;67.91;96849.44;611836;232;64379;-72
2022/05/21 12:59:08;;;;;;;;;;;;;;;22.46;67.62;96852.13;611820;232;65463;-72
2022/05/21 13:01:38;;;;;;;;;;;;;;;22.46;67.90;96849.44;611865;232;64371;-73
2022/05/21 13:04:07;;;;;;;;;;;;;;;22.46;67.31;96846.77;611769;232;64763;-72
2022/05/21 13:06:34;;;;;;;;;;;;;;;22.45;66.98;96840.59;611347;232;63900;-72
2022/05/21 13:09:04;;;;;;;;;;;;;;;22.46;67.31;96849.44;611816;232;66721;-72
2022/05/21 13:11:36;;;;;;;;;;;;;;;22.46;67.67;96841.41;611854;232;66648;-72
2022/05/21 13:14:04;;;;;;;;;;;;;;;22.45;68.32;96842.47;611804;230;63067;-72
2022/05/21 13:16:33;;;;;;;;;;;;;;;22.47;67.80;96832.28;611775;232;64851;-72
2022/05/21 13:19:05;;;;;;;;;;;;;;;22.46;67.47;96833.38;611898;232;64386;-72
2022/05/21 13:21:35;;;;;;;;;;;;;;;22.45;67.15;96840.59;611579;232;65144;-72
2022/05/21 13:24:07;;;;;;;;;;;;;;;22.47;67.99;96843.00;611776;230;67033;-73
2022/05/21 13:26:36;;;;;;;;;;;;;;;22.46;68.18;96841.41;611834;231;66845;-73
2022/05/21 13:29:17;;;;;;;;;;;;;;;22.46;68.40;96833.38;611807;232;65581;-72